sensor_id;sensor_type;location;lat;lon;timestamp;P1;durP1;ratioP1;P2;durP2;ratioP2
39214;SDS011;24932;51.746;14.334;2023-05-21T00:00:40;52.1;;;34.6;;
39214;SDS011;24932;51.746;14.334;2023-05-21T00:04:40;60.72;;;37.63;;
39214;SDS011;24932;51.746;14.334;2023-05-21T00:08:40;53.7;;;35.47;;
39214;SDS011;24932;51.746;14.334;2023-05-21T00:12:40;56.83;;;35.65;;
39214;SDS011;24932;51.746;14.334;2023-05-21T00:16:40;56.28;;;36.13;;
39214;SDS011;24932;51.746;14.334;2023-05-21T00:20:40;60.1;;;36.4;;
39214;SDS011;24932;51.746;14.334;2023-05-21T00:24:40;58.38;;;36.3;;
39214;SDS011;24932;51.746;14.334;2023-05-21T00:28:40;66.03;;;37.25;;
39214;SDS011;24932;51.746;14.334;2023-05-21T00:32:40;61.88;;;36.08;;
39214;SDS011;24932;51.746;14.334;2023-05-21T00:36:41;61.45;;;37.5;;
39214;SDS011;24932;51.746;14.334;2023-05-21T00:40:40;57.53;;;37.1;;
39214;SDS011;24932;51.746;14.334;2023-05-21T00:44:40;63.15;;;38.1;;
39214;SDS011;24932;51.746;14.334;2023-05-21T00:48:40;61.22;;;38.17;;
39214;SDS011;24932;51.746;14.334;2023-05-21T00:52:41;66.47;;;38.03;;
39214;SDS011;24932;51.746;14.334;2023-05-21T00:56:40;69.53;;;40.58;;
39214;SDS011;24932;51.746;14.334;2023-05-21T01:00:39;64.3;;;40.2;;
39214;SDS011;24932;51.746;14.334;2023-05-21T01:04:41;58.47;;;39.17;;
39214;SDS011;24932;51.746;14.334;2023-05-21T01:08:41;73.45;;;40.78;;
39214;SDS011;24932;51.746;14.334;2023-05-21T01:12:41;67.87;;;42.53;;
39214;SDS011;24932;51.746;14.334;2023-05-21T01:16:41;74.3;;;41.53;;
39214;SDS011;24932;51.746;14.334;2023-05-21T01:20:40;73.53;;;43.05;;
39214;SDS011;24932;51.746;14.334;2023-05-21T01:24:43;72.95;;;40.28;;
39214;SDS011;24932;51.746;14.334;2023-05-21T01:28:40;72.55;;;42.28;;
39214;SDS011;24932;51.746;14.334;2023-05-21T01:32:41;72.7;;;42.92;;
39214;SDS011;24932;51.746;14.334;2023-05-21T01:36:42;68.22;;;39.05;;
39214;SDS011;24932;51.746;14.334;2023-05-21T01:40:40;74.6;;;43.08;;
39214;SDS011;24932;51.746;14.334;2023-05-21T01:44:40;67.6;;;43.05;;
39214;SDS011;24932;51.746;14.334;2023-05-21T01:48:40;74.8;;;42.45;;
39214;SDS011;24932;51.746;14.334;2023-05-21T01:52:47;72.62;;;41.63;;
39214;SDS011;24932;51.746;14.334;2023-05-21T01:56:40;77.6;;;45.95;;
39214;SDS011;24932;51.746;14.334;2023-05-21T02:00:40;78.45;;;44.28;;
39214;SDS011;24932;51.746;14.334;2023-05-21T02:04:40;70.2;;;43.3;;
39214;SDS011;24932;51.746;14.334;2023-05-21T02:08:39;80.15;;;44.5;;
39214;SDS011;24932;51.746;14.334;2023-05-21T02:12:41;74.32;;;45.92;;
39214;SDS011;24932;51.746;14.334;2023-05-21T02:16:40;86.78;;;47.65;;
39214;SDS011;24932;51.746;14.334;2023-05-21T02:20:40;79.75;;;42.78;;
39214;SDS011;24932;51.746;14.334;2023-05-21T02:24:40;86.95;;;46.3;;
39214;SDS011;24932;51.746;14.334;2023-05-21T02:28:40;88.15;;;49.42;;
39214;SDS011;24932;51.746;14.334;2023-05-21T02:32:41;82.9;;;46.83;;
39214;SDS011;24932;51.746;14.334;2023-05-21T02:36:41;88.05;;;48.53;;
39214;SDS011;24932;51.746;14.334;2023-05-21T02:40:40;82.28;;;47.1;;
39214;SDS011;24932;51.746;14.334;2023-05-21T02:44:40;88.97;;;47.45;;
39214;SDS011;24932;51.746;14.334;2023-05-21T02:48:40;88.97;;;49.4;;
39214;SDS011;24932;51.746;14.334;2023-05-21T02:52:40;95.75;;;50.28;;
39214;SDS011;24932;51.746;14.334;2023-05-21T02:56:40;105.95;;;52.83;;
39214;SDS011;24932;51.746;14.334;2023-05-21T03:00:40;98.85;;;50.28;;
39214;SDS011;24932;51.746;14.334;2023-05-21T03:04:40;92.9;;;51.92;;
39214;SDS011;24932;51.746;14.334;2023-05-21T03:08:41;91.5;;;51.65;;
39214;SDS011;24932;51.746;14.334;2023-05-21T03:12:40;97.75;;;49.35;;
39214;SDS011;24932;51.746;14.334;2023-05-21T03:16:40;92.47;;;52.17;;
39214;SDS011;24932;51.746;14.334;2023-05-21T03:20:40;89.22;;;49.78;;
39214;SDS011;24932;51.746;14.334;2023-05-21T03:24:40;94.25;;;51.67;;
39214;SDS011;24932;51.746;14.334;2023-05-21T03:28:39;98.47;;;51.1;;
39214;SDS011;24932;51.746;14.334;2023-05-21T03:32:40;99.18;;;51.25;;
39214;SDS011;24932;51.746;14.334;2023-05-21T03:36:40;98.8;;;52.92;;
39214;SDS011;24932;51.746;14.334;2023-05-21T03:40:41;101.25;;;52.97;;
39214;SDS011;24932;51.746;14.334;2023-05-21T03:44:40;98.18;;;50.47;;
39214;SDS011;24932;51.746;14.334;2023-05-21T03:48:40;90.72;;;49.97;;
39214;SDS011;24932;51.746;14.334;2023-05-21T03:52:40;91.78;;;52.03;;
39214;SDS011;24932;51.746;14.334;2023-05-21T03:56:40;84.1;;;48.05;;
39214;SDS011;24932;51.746;14.334;2023-05-21T04:00:40;89.72;;;49.1;;
39214;SDS011;24932;51.746;14.334;2023-05-21T04:04:40;79.78;;;49.63;;
39214;SDS011;24932;51.746;14.334;2023-05-21T04:08:40;65.62;;;43.2;;
39214;SDS011;24932;51.746;14.334;2023-05-21T04:12:40;57.72;;;38.53;;
39214;SDS011;24932;51.746;14.334;2023-05-21T04:16:41;54.55;;;36.75;;
39214;SDS011;24932;51.746;14.334;2023-05-21T04:20:40;50.58;;;34.83;;
39214;SDS011;24932;51.746;14.334;2023-05-21T04:24:40;50.15;;;33.4;;
39214;SDS011;24932;51.746;14.334;2023-05-21T04:28:41;44.63;;;32.83;;
39214;SDS011;24932;51.746;14.334;2023-05-21T04:32:39;38.2;;;29.67;;
39214;SDS011;24932;51.746;14.334;2023-05-21T04:36:40;39.4;;;28.52;;
39214;SDS011;24932;51.746;14.334;2023-05-21T04:40:40;43.7;;;31.65;;
39214;SDS011;24932;51.746;14.334;2023-05-21T04:44:40;40.4;;;29.02;;
39214;SDS011;24932;51.746;14.334;2023-05-21T04:48:41;38.53;;;28.2;;
39214;SDS011;24932;51.746;14.334;2023-05-21T04:52:40;35.95;;;28.8;;
39214;SDS011;24932;51.746;14.334;2023-05-21T04:56:40;37.03;;;26.98;;
39214;SDS011;24932;51.746;14.334;2023-05-21T05:00:41;39.25;;;28.98;;
39214;SDS011;24932;51.746;14.334;2023-05-21T05:04:40;38.15;;;27.9;;
39214;SDS011;24932;51.746;14.334;2023-05-21T05:08:40;37.6;;;27.73;;
39214;SDS011;24932;51.746;14.334;2023-05-21T05:12:41;38.25;;;28.42;;
39214;SDS011;24932;51.746;14.334;2023-05-21T05:16:41;34.42;;;26.75;;
39214;SDS011;24932;51.746;14.334;2023-05-21T05:20:40;38.55;;;27.52;;
39214;SDS011;24932;51.746;14.334;2023-05-21T05:24:40;32.65;;;24.83;;
39214;SDS011;24932;51.746;14.334;2023-05-21T05:28:40;31.87;;;24.6;;
39214;SDS011;24932;51.746;14.334;2023-05-21T05:32:40;29.7;;;24.25;;
39214;SDS011;24932;51.746;14.334;2023-05-21T05:36:40;32.75;;;24.25;;
39214;SDS011;24932;51.746;14.334;2023-05-21T05:40:40;32.63;;;23.83;;
39214;SDS011;24932;51.746;14.334;2023-05-21T05:44:40;26.48;;;23.55;;
39214;SDS011;24932;51.746;14.334;2023-05-21T05:48:40;32.28;;;23.1;;
39214;SDS011;24932;51.746;14.334;2023-05-21T05:52:41;28.42;;;21.6;;
39214;SDS011;24932;51.746;14.334;2023-05-21T05:56:40;29.63;;;22.1;;
39214;SDS011;24932;51.746;14.334;2023-05-21T06:00:40;28.2;;;21.1;;
39214;SDS011;24932;51.746;14.334;2023-05-21T06:04:41;30.3;;;21.67;;
39214;SDS011;24932;51.746;14.334;2023-05-21T06:08:40;27.62;;;19.2;;
39214;SDS011;24932;51.746;14.334;2023-05-21T06:12:40;29.45;;;20.02;;
39214;SDS011;24932;51.746;14.334;2023-05-21T06:16:40;26.6;;;19.87;;
39214;SDS011;24932;51.746;14.334;2023-05-21T06:20:41;22.7;;;18.27;;
39214;SDS011;24932;51.746;14.334;2023-05-21T06:24:40;27.87;;;18.9;;
39214;SDS011;24932;51.746;14.334;2023-05-21T06:28:39;27.77;;;18.98;;
39214;SDS011;24932;51.746;14.334;2023-05-21T06:32:41;24.23;;;18.9;;
39214;SDS011;24932;51.746;14.334;2023-05-21T06:36:40;23.35;;;17.95;;
39214;SDS011;24932;51.746;14.334;2023-05-21T06:40:40;21.5;;;16.62;;
39214;SDS011;24932;51.746;14.334;2023-05-21T06:44:40;21.2;;;16.4;;
39214;SDS011;24932;51.746;14.334;2023-05-21T06:48:40;25.2;;;16.27;;
39214;SDS011;24932;51.746;14.334;2023-05-21T06:52:41;17.35;;;15.02;;
39214;SDS011;24932;51.746;14.334;2023-05-21T06:56:40;20.48;;;15.63;;
39214;SDS011;24932;51.746;14.334;2023-05-21T07:00:41;18.05;;;15.07;;
39214;SDS011;24932;51.746;14.334;2023-05-21T07:04:40;20.42;;;13.85;;
39214;SDS011;24932;51.746;14.334;2023-05-21T07:08:40;21.75;;;14.55;;
39214;SDS011;24932;51.746;14.334;2023-05-21T07:12:40;16.5;;;13.1;;
39214;SDS011;24932;51.746;14.334;2023-05-21T07:16:40;18.35;;;13.13;;
39214;SDS011;24932;51.746;14.334;2023-05-21T07:20:40;17.1;;;13.68;;
39214;SDS011;24932;51.746;14.334;2023-05-21T07:24:40;19.48;;;12.6;;
39214;SDS011;24932;51.746;14.334;2023-05-21T07:28:40;18.23;;;13.25;;
39214;SDS011;24932;51.746;14.334;2023-05-21T07:32:40;17.4;;;12.77;;
39214;SDS011;24932;51.746;14.334;2023-05-21T07:36:41;18.15;;;12.9;;
39214;SDS011;24932;51.746;14.334;2023-05-21T07:40:40;16.27;;;12.45;;
39214;SDS011;24932;51.746;14.334;2023-05-21T07:44:41;22.2;;;13.57;;
39214;SDS011;24932;51.746;14.334;2023-05-21T07:48:40;15.25;;;11.8;;
39214;SDS011;24932;51.746;14.334;2023-05-21T07:52:41;15.1;;;11.82;;
39214;SDS011;24932;51.746;14.334;2023-05-21T07:56:40;14.2;;;12.4;;
39214;SDS011;24932;51.746;14.334;2023-05-21T08:00:41;17.7;;;11.68;;
39214;SDS011;24932;51.746;14.334;2023-05-21T08:04:41;17.5;;;11.45;;
39214;SDS011;24932;51.746;14.334;2023-05-21T08:08:40;13.02;;;11.52;;
39214;SDS011;24932;51.746;14.334;2023-05-21T08:12:40;13.8;;;10.9;;
39214;SDS011;24932;51.746;14.334;2023-05-21T08:16:41;15.68;;;11.8;;
39214;SDS011;24932;51.746;14.334;2023-05-21T08:20:40;14.82;;;11.27;;
39214;SDS011;24932;51.746;14.334;2023-05-21T08:24:40;18.9;;;11.8;;
39214;SDS011;24932;51.746;14.334;2023-05-21T08:28:40;12.63;;;10.85;;
39214;SDS011;24932;51.746;14.334;2023-05-21T08:32:41;14.73;;;10.52;;
39214;SDS011;24932;51.746;14.334;2023-05-21T08:36:40;12.75;;;10.15;;
39214;SDS011;24932;51.746;14.334;2023-05-21T08:40:40;12.82;;;10.25;;
39214;SDS011;24932;51.746;14.334;2023-05-21T08:44:41;11.7;;;10.5;;
39214;SDS011;24932;51.746;14.334;2023-05-21T08:48:41;11.88;;;10.63;;
39214;SDS011;24932;51.746;14.334;2023-05-21T08:52:40;14.0;;;11.38;;
39214;SDS011;24932;51.746;14.334;2023-05-21T08:56:40;16.52;;;10.38;;
39214;SDS011;24932;51.746;14.334;2023-05-21T09:00:40;14.25;;;10.02;;
39214;SDS011;24932;51.746;14.334;2023-05-21T09:04:41;12.75;;;10.93;;
39214;SDS011;24932;51.746;14.334;2023-05-21T09:08:42;11.82;;;9.57;;
39214;SDS011;24932;51.746;14.334;2023-05-21T09:12:40;14.73;;;10.5;;
39214;SDS011;24932;51.746;14.334;2023-05-21T09:16:41;11.45;;;10.23;;
39214;SDS011;24932;51.746;14.334;2023-05-21T09:20:40;12.98;;;9.23;;
39214;SDS011;24932;51.746;14.334;2023-05-21T09:24:40;15.45;;;10.15;;
39214;SDS011;24932;51.746;14.334;2023-05-21T09:28:39;10.82;;;9.23;;
39214;SDS011;24932;51.746;14.334;2023-05-21T09:32:42;10.5;;;9.4;;
39214;SDS011;24932;51.746;14.334;2023-05-21T09:36:40;10.82;;;8.45;;
39214;SDS011;24932;51.746;14.334;2023-05-21T09:40:42;13.82;;;9.0;;
39214;SDS011;24932;51.746;14.334;2023-05-21T09:44:41;13.5;;;9.07;;
39214;SDS011;24932;51.746;14.334;2023-05-21T09:48:41;9.5;;;8.55;;
39214;SDS011;24932;51.746;14.334;2023-05-21T09:52:42;12.13;;;8.23;;
39214;SDS011;24932;51.746;14.334;2023-05-21T09:56:40;9.65;;;7.37;;
39214;SDS011;24932;51.746;14.334;2023-05-21T10:00:40;8.73;;;7.82;;
39214;SDS011;24932;51.746;14.334;2023-05-21T10:04:41;7.7;;;6.9;;
39214;SDS011;24932;51.746;14.334;2023-05-21T10:08:41;7.68;;;6.47;;
39214;SDS011;24932;51.746;14.334;2023-05-21T10:12:42;8.02;;;5.78;;
39214;SDS011;24932;51.746;14.334;2023-05-21T10:16:40;8.18;;;5.57;;
39214;SDS011;24932;51.746;14.334;2023-05-21T10:20:40;7.37;;;6.0;;
39214;SDS011;24932;51.746;14.334;2023-05-21T10:24:40;10.18;;;5.57;;
39214;SDS011;24932;51.746;14.334;2023-05-21T10:28:40;7.53;;;5.0;;
39214;SDS011;24932;51.746;14.334;2023-05-21T10:32:41;8.35;;;5.72;;
39214;SDS011;24932;51.746;14.334;2023-05-21T10:36:40;5.35;;;4.85;;
39214;SDS011;24932;51.746;14.334;2023-05-21T10:40:40;6.85;;;4.68;;
39214;SDS011;24932;51.746;14.334;2023-05-21T10:44:43;5.47;;;3.9;;
39214;SDS011;24932;51.746;14.334;2023-05-21T10:48:46;6.12;;;3.33;;
39214;SDS011;24932;51.746;14.334;2023-05-21T10:52:49;3.92;;;3.45;;
39214;SDS011;24932;51.746;14.334;2023-05-21T10:56:43;5.37;;;3.67;;
39214;SDS011;24932;51.746;14.334;2023-05-21T11:00:40;6.37;;;3.72;;
39214;SDS011;24932;51.746;14.334;2023-05-21T11:04:40;5.97;;;4.25;;
39214;SDS011;24932;51.746;14.334;2023-05-21T11:08:40;8.15;;;4.78;;
39214;SDS011;24932;51.746;14.334;2023-05-21T11:12:57;8.82;;;4.22;;
39214;SDS011;24932;51.746;14.334;2023-05-21T11:16:43;8.4;;;5.05;;
39214;SDS011;24932;51.746;14.334;2023-05-21T11:20:41;8.25;;;5.6;;
39214;SDS011;24932;51.746;14.334;2023-05-21T11:24:40;10.68;;;4.12;;
39214;SDS011;24932;51.746;14.334;2023-05-21T11:28:40;10.23;;;4.78;;
39214;SDS011;24932;51.746;14.334;2023-05-21T11:33:16;11.07;;;4.97;;
39214;SDS011;24932;51.746;14.334;2023-05-21T11:36:40;6.28;;;4.68;;
39214;SDS011;24932;51.746;14.334;2023-05-21T11:40:48;7.6;;;4.53;;
39214;SDS011;24932;51.746;14.334;2023-05-21T11:44:41;9.63;;;5.07;;
39214;SDS011;24932;51.746;14.334;2023-05-21T11:48:40;7.37;;;4.5;;
39214;SDS011;24932;51.746;14.334;2023-05-21T11:52:40;5.32;;;4.35;;
39214;SDS011;24932;51.746;14.334;2023-05-21T11:56:40;9.55;;;5.25;;
39214;SDS011;24932;51.746;14.334;2023-05-21T12:00:40;7.57;;;4.87;;
39214;SDS011;24932;51.746;14.334;2023-05-21T12:04:40;10.88;;;5.18;;
39214;SDS011;24932;51.746;14.334;2023-05-21T12:08:41;4.55;;;4.15;;
39214;SDS011;24932;51.746;14.334;2023-05-21T12:12:56;8.15;;;5.3;;
39214;SDS011;24932;51.746;14.334;2023-05-21T12:16:41;5.82;;;4.7;;
39214;SDS011;24932;51.746;14.334;2023-05-21T12:20:43;7.03;;;4.9;;
39214;SDS011;24932;51.746;14.334;2023-05-21T12:24:40;11.45;;;4.82;;
39214;SDS011;24932;51.746;14.334;2023-05-21T12:28:40;13.35;;;4.72;;
39214;SDS011;24932;51.746;14.334;2023-05-21T12:32:41;14.52;;;4.78;;
39214;SDS011;24932;51.746;14.334;2023-05-21T12:36:41;10.02;;;5.65;;
39214;SDS011;24932;51.746;14.334;2023-05-21T12:40:41;11.3;;;4.8;;
39214;SDS011;24932;51.746;14.334;2023-05-21T12:44:42;6.78;;;4.55;;
39214;SDS011;24932;51.746;14.334;2023-05-21T12:48:40;7.93;;;4.28;;
39214;SDS011;24932;51.746;14.334;2023-05-21T12:52:40;7.12;;;4.5;;
39214;SDS011;24932;51.746;14.334;2023-05-21T12:56:42;4.5;;;4.1;;
39214;SDS011;24932;51.746;14.334;2023-05-21T13:00:41;9.18;;;4.9;;
39214;SDS011;24932;51.746;14.334;2023-05-21T13:04:40;7.25;;;5.28;;
39214;SDS011;24932;51.746;14.334;2023-05-21T13:08:40;10.0;;;4.75;;
39214;SDS011;24932;51.746;14.334;2023-05-21T13:12:44;7.25;;;4.85;;
39214;SDS011;24932;51.746;14.334;2023-05-21T13:16:40;5.65;;;4.45;;
39214;SDS011;24932;51.746;14.334;2023-05-21T13:20:41;10.07;;;4.72;;
39214;SDS011;24932;51.746;14.334;2023-05-21T13:24:41;7.15;;;4.78;;
39214;SDS011;24932;51.746;14.334;2023-05-21T13:28:42;8.23;;;5.53;;
39214;SDS011;24932;51.746;14.334;2023-05-21T13:32:41;5.3;;;4.2;;
39214;SDS011;24932;51.746;14.334;2023-05-21T13:36:39;9.05;;;4.25;;
39214;SDS011;24932;51.746;14.334;2023-05-21T13:40:41;5.9;;;4.6;;
39214;SDS011;24932;51.746;14.334;2023-05-21T13:44:40;5.95;;;4.43;;
39214;SDS011;24932;51.746;14.334;2023-05-21T13:48:40;10.18;;;4.22;;
39214;SDS011;24932;51.746;14.334;2023-05-21T13:52:40;7.6;;;3.75;;
39214;SDS011;24932;51.746;14.334;2023-05-21T13:56:40;6.4;;;3.83;;
39214;SDS011;24932;51.746;14.334;2023-05-21T14:00:41;5.78;;;3.87;;
39214;SDS011;24932;51.746;14.334;2023-05-21T14:04:40;9.0;;;3.83;;
39214;SDS011;24932;51.746;14.334;2023-05-21T14:08:40;6.05;;;3.85;;
39214;SDS011;24932;51.746;14.334;2023-05-21T14:12:41;6.93;;;4.47;;
39214;SDS011;24932;51.746;14.334;2023-05-21T14:16:40;5.37;;;3.55;;
39214;SDS011;24932;51.746;14.334;2023-05-21T14:20:41;5.97;;;4.0;;
39214;SDS011;24932;51.746;14.334;2023-05-21T14:24:40;7.78;;;4.25;;
39214;SDS011;24932;51.746;14.334;2023-05-21T14:28:40;9.0;;;4.2;;
39214;SDS011;24932;51.746;14.334;2023-05-21T14:32:40;8.82;;;4.3;;
39214;SDS011;24932;51.746;14.334;2023-05-21T14:36:40;5.5;;;3.55;;
39214;SDS011;24932;51.746;14.334;2023-05-21T14:40:40;5.97;;;4.0;;
39214;SDS011;24932;51.746;14.334;2023-05-21T14:44:40;6.7;;;3.65;;
39214;SDS011;24932;51.746;14.334;2023-05-21T14:48:40;6.62;;;4.15;;
39214;SDS011;24932;51.746;14.334;2023-05-21T14:52:40;9.0;;;4.55;;
39214;SDS011;24932;51.746;14.334;2023-05-21T14:56:40;6.2;;;3.72;;
39214;SDS011;24932;51.746;14.334;2023-05-21T15:00:40;10.05;;;3.92;;
39214;SDS011;24932;51.746;14.334;2023-05-21T15:04:40;9.23;;;3.7;;
39214;SDS011;24932;51.746;14.334;2023-05-21T15:08:40;5.32;;;4.03;;
39214;SDS011;24932;51.746;14.334;2023-05-21T15:12:40;7.53;;;3.95;;
39214;SDS011;24932;51.746;14.334;2023-05-21T15:16:40;4.47;;;3.83;;
39214;SDS011;24932;51.746;14.334;2023-05-21T15:20:40;10.98;;;4.4;;
39214;SDS011;24932;51.746;14.334;2023-05-21T15:24:40;5.82;;;3.5;;
39214;SDS011;24932;51.746;14.334;2023-05-21T15:28:40;7.15;;;3.7;;
39214;SDS011;24932;51.746;14.334;2023-05-21T15:32:40;5.82;;;3.5;;
39214;SDS011;24932;51.746;14.334;2023-05-21T15:36:40;10.4;;;3.45;;
39214;SDS011;24932;51.746;14.334;2023-05-21T15:40:40;7.8;;;3.78;;
39214;SDS011;24932;51.746;14.334;2023-05-21T15:44:40;10.85;;;4.18;;
39214;SDS011;24932;51.746;14.334;2023-05-21T15:48:40;7.6;;;3.78;;
39214;SDS011;24932;51.746;14.334;2023-05-21T15:52:40;12.82;;;3.8;;
39214;SDS011;24932;51.746;14.334;2023-05-21T15:56:42;6.12;;;3.42;;
39214;SDS011;24932;51.746;14.334;2023-05-21T16:00:40;6.03;;;3.72;;
39214;SDS011;24932;51.746;14.334;2023-05-21T16:04:40;5.87;;;3.28;;
39214;SDS011;24932;51.746;14.334;2023-05-21T16:08:40;8.85;;;4.3;;
39214;SDS011;24932;51.746;14.334;2023-05-21T16:12:41;6.6;;;3.3;;
39214;SDS011;24932;51.746;14.334;2023-05-21T16:16:40;5.45;;;3.55;;
39214;SDS011;24932;51.746;14.334;2023-05-21T16:20:40;12.73;;;3.37;;
39214;SDS011;24932;51.746;14.334;2023-05-21T16:24:40;4.12;;;3.03;;
39214;SDS011;24932;51.746;14.334;2023-05-21T16:28:40;9.95;;;3.4;;
39214;SDS011;24932;51.746;14.334;2023-05-21T16:32:41;6.5;;;3.35;;
39214;SDS011;24932;51.746;14.334;2023-05-21T16:36:40;6.3;;;3.0;;
39214;SDS011;24932;51.746;14.334;2023-05-21T16:40:40;13.27;;;7.47;;
39214;SDS011;24932;51.746;14.334;2023-05-21T16:44:41;8.2;;;3.9;;
39214;SDS011;24932;51.746;14.334;2023-05-21T16:48:40;7.7;;;3.2;;
39214;SDS011;24932;51.746;14.334;2023-05-21T16:52:40;21.7;;;8.15;;
39214;SDS011;24932;51.746;14.334;2023-05-21T16:56:40;9.57;;;4.68;;
39214;SDS011;24932;51.746;14.334;2023-05-21T17:00:39;10.52;;;3.47;;
39214;SDS011;24932;51.746;14.334;2023-05-21T17:04:40;5.1;;;3.08;;
39214;SDS011;24932;51.746;14.334;2023-05-21T17:08:40;4.78;;;3.12;;
39214;SDS011;24932;51.746;14.334;2023-05-21T17:12:40;5.53;;;3.75;;
39214;SDS011;24932;51.746;14.334;2023-05-21T17:16:40;8.23;;;3.15;;
39214;SDS011;24932;51.746;14.334;2023-05-21T17:20:40;6.7;;;3.8;;
39214;SDS011;24932;51.746;14.334;2023-05-21T17:24:39;9.6;;;3.97;;
39214;SDS011;24932;51.746;14.334;2023-05-21T17:28:40;7.47;;;3.25;;
39214;SDS011;24932;51.746;14.334;2023-05-21T17:32:40;13.73;;;3.65;;
39214;SDS011;24932;51.746;14.334;2023-05-21T17:36:40;8.73;;;3.22;;
39214;SDS011;24932;51.746;14.334;2023-05-21T17:40:40;7.0;;;3.8;;
39214;SDS011;24932;51.746;14.334;2023-05-21T17:44:40;7.43;;;3.72;;
39214;SDS011;24932;51.746;14.334;2023-05-21T17:48:40;7.05;;;3.4;;
39214;SDS011;24932;51.746;14.334;2023-05-21T17:52:40;6.37;;;3.55;;
39214;SDS011;24932;51.746;14.334;2023-05-21T17:56:40;7.6;;;3.7;;
39214;SDS011;24932;51.746;14.334;2023-05-21T18:00:41;7.03;;;3.5;;
39214;SDS011;24932;51.746;14.334;2023-05-21T18:04:40;5.7;;;4.1;;
39214;SDS011;24932;51.746;14.334;2023-05-21T18:08:40;6.5;;;3.72;;
39214;SDS011;24932;51.746;14.334;2023-05-21T18:12:40;6.35;;;3.6;;
39214;SDS011;24932;51.746;14.334;2023-05-21T18:16:40;4.85;;;3.55;;
39214;SDS011;24932;51.746;14.334;2023-05-21T18:20:41;8.18;;;3.2;;
39214;SDS011;24932;51.746;14.334;2023-05-21T18:24:40;9.38;;;3.95;;
39214;SDS011;24932;51.746;14.334;2023-05-21T18:28:40;6.0;;;3.92;;
39214;SDS011;24932;51.746;14.334;2023-05-21T18:32:42;10.77;;;3.7;;
39214;SDS011;24932;51.746;14.334;2023-05-21T18:36:40;4.62;;;3.83;;
39214;SDS011;24932;51.746;14.334;2023-05-21T18:40:40;4.7;;;3.17;;
39214;SDS011;24932;51.746;14.334;2023-05-21T18:44:41;5.6;;;4.1;;
39214;SDS011;24932;51.746;14.334;2023-05-21T18:48:40;9.63;;;4.05;;
39214;SDS011;24932;51.746;14.334;2023-05-21T18:52:40;11.1;;;3.67;;
39214;SDS011;24932;51.746;14.334;2023-05-21T18:56:41;6.03;;;3.05;;
39214;SDS011;24932;51.746;14.334;2023-05-21T19:00:41;4.12;;;3.22;;
39214;SDS011;24932;51.746;14.334;2023-05-21T19:04:41;8.43;;;3.2;;
39214;SDS011;24932;51.746;14.334;2023-05-21T19:08:40;4.57;;;3.37;;
39214;SDS011;24932;51.746;14.334;2023-05-21T19:12:41;5.68;;;3.75;;
39214;SDS011;24932;51.746;14.334;2023-05-21T19:16:40;3.65;;;3.0;;
39214;SDS011;24932;51.746;14.334;2023-05-21T19:20:40;4.07;;;3.4;;
39214;SDS011;24932;51.746;14.334;2023-05-21T19:24:40;4.2;;;3.25;;
39214;SDS011;24932;51.746;14.334;2023-05-21T19:28:39;6.5;;;3.12;;
39214;SDS011;24932;51.746;14.334;2023-05-21T19:32:40;6.7;;;3.6;;
39214;SDS011;24932;51.746;14.334;2023-05-21T19:36:53;5.7;;;3.3;;
39214;SDS011;24932;51.746;14.334;2023-05-21T19:40:40;9.38;;;3.42;;
39214;SDS011;24932;51.746;14.334;2023-05-21T19:44:40;5.85;;;3.17;;
39214;SDS011;24932;51.746;14.334;2023-05-21T19:48:40;6.2;;;2.8;;
39214;SDS011;24932;51.746;14.334;2023-05-21T19:52:40;7.62;;;3.33;;
39214;SDS011;24932;51.746;14.334;2023-05-21T19:56:40;7.05;;;3.05;;
39214;SDS011;24932;51.746;14.334;2023-05-21T20:00:40;5.87;;;2.9;;
39214;SDS011;24932;51.746;14.334;2023-05-21T20:04:41;7.55;;;3.62;;
39214;SDS011;24932;51.746;14.334;2023-05-21T20:08:40;7.62;;;3.05;;
39214;SDS011;24932;51.746;14.334;2023-05-21T20:12:40;4.78;;;2.62;;
39214;SDS011;24932;51.746;14.334;2023-05-21T20:16:40;4.7;;;3.05;;
39214;SDS011;24932;51.746;14.334;2023-05-21T20:20:41;7.65;;;3.25;;
39214;SDS011;24932;51.746;14.334;2023-05-21T20:24:40;5.57;;;3.17;;
39214;SDS011;24932;51.746;14.334;2023-05-21T20:28:40;3.62;;;2.78;;
39214;SDS011;24932;51.746;14.334;2023-05-21T20:32:40;4.25;;;3.17;;
39214;SDS011;24932;51.746;14.334;2023-05-21T20:36:40;11.25;;;3.65;;
39214;SDS011;24932;51.746;14.334;2023-05-21T20:40:41;6.53;;;3.47;;
39214;SDS011;24932;51.746;14.334;2023-05-21T20:44:40;9.27;;;3.97;;
39214;SDS011;24932;51.746;14.334;2023-05-21T20:48:40;4.12;;;3.35;;
39214;SDS011;24932;51.746;14.334;2023-05-21T20:52:40;4.18;;;3.58;;
39214;SDS011;24932;51.746;14.334;2023-05-21T20:56:43;4.4;;;3.47;;
39214;SDS011;24932;51.746;14.334;2023-05-21T21:00:40;4.5;;;3.22;;
39214;SDS011;24932;51.746;14.334;2023-05-21T21:04:40;4.22;;;3.45;;
39214;SDS011;24932;51.746;14.334;2023-05-21T21:08:40;12.45;;;3.97;;
39214;SDS011;24932;51.746;14.334;2023-05-21T21:12:40;5.95;;;3.25;;
39214;SDS011;24932;51.746;14.334;2023-05-21T21:16:40;10.15;;;3.03;;
39214;SDS011;24932;51.746;14.334;2023-05-21T21:20:41;3.62;;;3.08;;
39214;SDS011;24932;51.746;14.334;2023-05-21T21:24:40;5.75;;;2.97;;
39214;SDS011;24932;51.746;14.334;2023-05-21T21:28:40;14.32;;;3.87;;
39214;SDS011;24932;51.746;14.334;2023-05-21T21:32:40;4.62;;;3.5;;
39214;SDS011;24932;51.746;14.334;2023-05-21T21:36:40;6.53;;;3.67;;
39214;SDS011;24932;51.746;14.334;2023-05-21T21:40:41;4.55;;;3.55;;
39214;SDS011;24932;51.746;14.334;2023-05-21T21:44:40;5.28;;;3.28;;
39214;SDS011;24932;51.746;14.334;2023-05-21T21:48:41;4.68;;;3.75;;
39214;SDS011;24932;51.746;14.334;2023-05-21T21:52:40;6.75;;;3.72;;
39214;SDS011;24932;51.746;14.334;2023-05-21T21:56:40;5.93;;;3.72;;
39214;SDS011;24932;51.746;14.334;2023-05-21T22:00:41;5.28;;;3.9;;
39214;SDS011;24932;51.746;14.334;2023-05-21T22:04:40;7.37;;;3.8;;
39214;SDS011;24932;51.746;14.334;2023-05-21T22:08:40;7.4;;;3.53;;
39214;SDS011;24932;51.746;14.334;2023-05-21T22:12:40;7.43;;;3.8;;
39214;SDS011;24932;51.746;14.334;2023-05-21T22:16:40;6.93;;;3.67;;
39214;SDS011;24932;51.746;14.334;2023-05-21T22:20:41;5.1;;;3.12;;
39214;SDS011;24932;51.746;14.334;2023-05-21T22:24:41;4.72;;;3.17;;
39214;SDS011;24932;51.746;14.334;2023-05-21T22:28:40;6.0;;;3.97;;
39214;SDS011;24932;51.746;14.334;2023-05-21T22:32:40;7.3;;;3.97;;
39214;SDS011;24932;51.746;14.334;2023-05-21T22:36:40;5.57;;;3.72;;
39214;SDS011;24932;51.746;14.334;2023-05-21T22:40:41;7.03;;;3.72;;
39214;SDS011;24932;51.746;14.334;2023-05-21T22:44:41;5.82;;;3.22;;
39214;SDS011;24932;51.746;14.334;2023-05-21T22:48:40;5.68;;;3.37;;
39214;SDS011;24932;51.746;14.334;2023-05-21T22:52:40;7.6;;;3.58;;
39214;SDS011;24932;51.746;14.334;2023-05-21T22:56:40;3.87;;;3.4;;
39214;SDS011;24932;51.746;14.334;2023-05-21T23:00:41;9.73;;;3.53;;
39214;SDS011;24932;51.746;14.334;2023-05-21T23:04:44;5.7;;;3.55;;
39214;SDS011;24932;51.746;14.334;2023-05-21T23:08:40;5.4;;;3.4;;
39214;SDS011;24932;51.746;14.334;2023-05-21T23:12:40;6.95;;;3.97;;
39214;SDS011;24932;51.746;14.334;2023-05-21T23:16:40;8.05;;;3.67;;
39214;SDS011;24932;51.746;14.334;2023-05-21T23:20:41;7.68;;;4.07;;
39214;SDS011;24932;51.746;14.334;2023-05-21T23:24:40;6.72;;;3.92;;
39214;SDS011;24932;51.746;14.334;2023-05-21T23:28:39;4.87;;;3.65;;
39214;SDS011;24932;51.746;14.334;2023-05-21T23:32:41;5.03;;;3.08;;
39214;SDS011;24932;51.746;14.334;2023-05-21T23:36:40;6.87;;;3.65;;